Time;durP1;ratioP1;P1;durP2;ratioP2;P2;SDS_P1;SDS_P2;PMS_P1;PMS_P2;Temp;Humidity;BMP_temperature;BMP_pressure;BME280_temperature;BME280_humidity;BME280_pressure;Samples;Min_cycle;Max_cycle;Signal;HPM_P1;HPM_P2
2022/01/11 00:01:42;;;;;;;19.10;12.15;;;-5.10;90.40;-5.80;98970.00;;;;5023488;28;89325;-59
2022/01/11 00:04:15;;;;;;;16.80;11.73;;;-5.10;90.40;-5.90;98959.00;;;;5021927;28;86974;-59
2022/01/11 00:06:46;;;;;;;18.67;12.85;;;-5.10;90.50;-5.90;98955.00;;;;5016114;28;86989;-58
2022/01/11 00:09:46;;;;;;;21.50;13.77;;;-5.20;90.70;-5.90;98963.00;;;;5021151;28;88501;-60
2022/01/11 00:12:08;;;;;;;17.58;12.55;;;-5.20;90.80;-5.90;98952.00;;;;5019353;28;88604;-59
2022/01/11 00:14:35;;;;;;;16.63;12.55;;;-5.20;90.90;-6.00;98967.00;;;;5021168;28;87133;-60
2022/01/11 00:17:02;;;;;;;15.07;10.82;;;-5.20;90.80;-6.10;98967.00;;;;5022410;28;86693;-60
2022/01/11 00:19:29;;;;;;;13.85;10.38;;;-5.40;90.60;-6.20;98987.00;;;;5021647;28;87577;-59
2022/01/11 00:21:57;;;;;;;16.17;10.90;;;-5.50;90.50;-6.20;98984.00;;;;5019896;28;88302;-60
2022/01/11 00:24:33;;;;;;;13.82;9.85;;;-5.50;90.70;-6.30;98992.00;;;;5020086;28;87870;-60
2022/01/11 00:27:06;;;;;;;13.43;10.32;;;-5.50;90.60;-6.40;98994.00;;;;5022263;28;86904;-60
2022/01/11 00:29:35;;;;;;;13.27;10.02;;;-5.60;90.50;-6.40;98989.00;;;;5021215;28;88556;-60
2022/01/11 00:32:12;;;;;;;13.52;9.57;;;-5.60;90.60;-6.50;99020.00;;;;5019199;28;87216;-60
2022/01/11 00:34:52;;;;;;;;;;;-5.80;90.10;-6.60;98999.00;;;;5031013;28;87100;-60
2022/01/11 00:37:20;;;;;;;14.10;9.68;;;-5.80;90.30;-6.60;99001.00;;;;5037928;28;86991;-60
2022/01/11 00:39:50;;;;;;;13.30;9.88;;;-5.90;90.30;-6.70;98997.00;;;;5020943;28;87531;-60
2022/01/11 00:42:19;;;;;;;13.50;9.48;;;-5.90;90.50;-6.70;98990.00;;;;5020693;28;87470;-58
2022/01/11 00:44:45;;;;;;;13.23;9.65;;;-5.90;90.60;-6.60;98986.00;;;;5021151;28;87260;-60
2022/01/11 00:47:12;;;;;;;15.25;10.60;;;-5.90;90.70;-6.70;99007.00;;;;5022103;28;86992;-58
2022/01/11 00:49:40;;;;;;;14.05;10.57;;;-5.90;90.60;-6.70;98995.00;;;;5018939;28;89646;-60
2022/01/11 00:52:08;;;;;;;16.60;11.52;;;-5.90;90.70;-6.70;99017.00;;;;5019390;28;88262;-60
2022/01/11 00:54:35;;;;;;;14.10;10.73;;;-6.00;90.70;-6.80;99022.00;;;;5020809;28;86991;-58
2022/01/11 00:57:02;;;;;;;14.15;10.63;;;-6.00;90.60;-6.80;99030.00;;;;5020713;28;87721;-60
2022/01/11 00:59:28;;;;;;;15.55;10.55;;;-6.00;90.60;-6.80;99038.00;;;;5020516;28;87631;-60
2022/01/11 01:01:54;;;;;;;15.80;10.38;;;-6.00;90.70;-6.80;99033.00;;;;5019198;28;87259;-60
2022/01/11 01:04:21;;;;;;;14.68;11.32;;;-6.10;90.70;-6.80;99031.00;;;;5019573;28;87148;-60
2022/01/11 01:06:47;;;;;;;14.88;11.57;;;-6.00;90.90;-6.80;99034.00;;;;5023531;28;86435;-58
2022/01/11 01:09:14;;;;;;;17.02;11.90;;;-6.00;90.90;-6.80;99051.00;;;;5022651;28;87622;-60
2022/01/11 01:11:46;;;;;;;18.80;12.50;;;-6.10;90.90;-6.80;99052.00;;;;5023878;28;87757;-60
2022/01/11 01:14:14;;;;;;;18.88;12.50;;;-6.10;91.00;-6.90;99059.00;;;;5022407;28;88053;-60
2022/01/11 01:16:40;;;;;;;19.73;13.65;;;-6.10;91.10;-6.90;99059.00;;;;5023524;28;87230;-59
2022/01/11 01:19:32;;;;;;;20.10;13.25;;;-6.20;91.10;-7.00;99058.00;;;;5022039;28;88668;-59
2022/01/11 01:21:59;;;;;;;18.42;12.25;;;-6.20;91.10;-7.00;99059.00;;;;5023755;28;88567;-59
2022/01/11 01:24:25;;;;;;;20.05;13.57;;;-6.20;91.50;-6.90;99065.00;;;;5024491;28;86924;-59
2022/01/11 01:26:52;;;;;;;19.83;13.60;;;-6.20;91.60;-7.00;99073.00;;;;5023259;28;86938;-60
2022/01/11 01:29:18;;;;;;;18.80;14.20;;;-6.20;91.70;-7.00;99100.00;;;;5022817;28;88889;-60
2022/01/11 01:31:44;;;;;;;20.15;13.77;;;-6.20;92.00;-7.00;99078.00;;;;5022899;28;87213;-59
2022/01/11 01:34:10;;;;;;;18.33;14.10;;;-6.20;91.70;-7.00;99076.00;;;;5022680;28;86975;-60
2022/01/11 01:36:36;;;;;;;19.25;13.85;;;-6.20;91.70;-7.00;99070.00;;;;5022729;28;87126;-59
2022/01/11 01:39:04;;;;;;;19.42;13.20;;;-6.20;91.60;-6.90;99109.00;;;;5022279;28;89115;-61
2022/01/11 01:41:30;;;;;;;17.65;13.60;;;-6.20;91.70;-6.90;99060.00;;;;5022393;28;88191;-60
2022/01/11 01:44:01;;;;;;;20.23;13.05;;;-6.20;91.60;-7.00;99078.00;;;;5023633;28;87353;-60
2022/01/11 01:46:28;;;;;;;18.00;13.37;;;-6.20;91.50;-7.00;99084.00;;;;5024335;28;86905;-59
2022/01/11 01:48:58;;;;;;;19.20;14.15;;;-6.20;91.40;-6.90;99074.00;;;;5023299;28;87468;-60
2022/01/11 01:51:24;;;;;;;17.73;13.02;;;-6.20;91.80;-6.90;99088.00;;;;5023137;28;87298;-59
2022/01/11 01:53:51;;;;;;;18.48;13.15;;;-6.20;91.10;-7.00;99072.00;;;;5024243;28;86897;-60
2022/01/11 01:56:21;;;;;;;18.23;13.10;;;-6.20;91.10;-7.00;99085.00;;;;5024577;28;86489;-60
2022/01/11 01:58:49;;;;;;;17.90;13.57;;;-6.20;91.10;-7.00;99086.00;;;;5023027;28;87554;-58
2022/01/11 02:01:16;;;;;;;18.70;13.25;;;-6.20;91.10;-7.00;99080.00;;;;5022252;28;87002;-59
2022/01/11 02:03:45;;;;;;;15.82;11.38;;;-6.30;91.00;-7.00;99076.00;;;;5016263;28;88765;-57
2022/01/11 02:06:17;;;;;;;16.55;12.38;;;-6.30;91.00;-7.00;99083.00;;;;5022869;28;87001;-59
2022/01/11 02:08:49;;;;;;;16.50;12.32;;;-6.20;91.40;-7.10;99089.00;;;;5023868;28;87730;-58
2022/01/11 02:11:18;;;;;;;17.20;11.40;;;-6.30;90.80;-7.20;99078.00;;;;5022274;28;88505;-60
2022/01/11 02:13:46;;;;;;;13.63;11.52;;;-6.30;90.80;-7.20;99084.00;;;;5022524;28;87300;-58
2022/01/11 02:16:15;;;;;;;13.00;10.80;;;-6.40;90.70;-7.30;99078.00;;;;5022490;28;87081;-59
2022/01/11 02:18:42;;;;;;;13.35;10.32;;;-6.50;90.70;-7.30;99094.00;;;;5022735;28;88696;-58
2022/01/11 02:21:14;;;;;;;14.02;10.93;;;-6.50;90.50;-7.40;99087.00;;;;5022745;28;87577;-59
2022/01/11 02:23:40;;;;;;;12.93;10.02;;;-6.60;90.40;-7.40;99099.00;;;;5028178;28;86995;-58
2022/01/11 02:26:08;;;;;;;15.07;11.27;;;-6.60;90.40;-7.40;99082.00;;;;5041843;28;86939;-59
2022/01/11 02:28:35;;;;;;;14.60;10.93;;;-6.60;90.40;-7.40;99077.00;;;;5021430;28;88484;-59
2022/01/11 02:31:07;;;;;;;12.10;10.02;;;-6.60;90.30;-7.50;99072.00;;;;5021708;28;87463;-59
2022/01/11 02:33:53;;;;;;;12.50;9.98;;;-6.70;90.10;-7.50;99076.00;;;;5021833;28;86991;-59
2022/01/11 02:36:37;;;;;;;11.93;9.88;;;-6.70;90.10;-7.60;99078.00;;;;5017257;28;87324;-57
2022/01/11 02:39:23;;;;;;;12.73;10.93;;;-6.70;90.20;-7.50;99085.00;;;;5022728;28;87512;-59
2022/01/11 02:41:57;;;;;;;12.13;10.00;;;-6.70;90.20;-7.60;99085.00;;;;5021195;28;87531;-59
2022/01/11 02:44:32;;;;;;;10.95;9.52;;;-6.80;89.70;-7.60;99093.00;;;;5022348;28;86996;-59
2022/01/11 02:46:59;;;;;;;10.95;9.25;;;-6.80;89.70;-7.60;99090.00;;;;5023127;28;86491;-59
2022/01/11 02:49:28;;;;;;;12.18;10.05;;;-6.80;89.40;-7.70;99090.00;;;;5022444;28;87691;-59
2022/01/11 02:52:03;;;;;;;12.13;9.30;;;-6.90;89.20;-7.70;99115.00;;;;5020712;28;87873;-58
2022/01/11 02:54:29;;;;;;;9.82;8.55;;;-6.90;88.70;-7.80;99095.00;;;;5023259;28;88004;-59
2022/01/11 02:57:07;;;;;;;9.77;8.70;;;-7.00;89.50;-7.80;99095.00;;;;5022985;28;86995;-59
2022/01/11 02:59:34;;;;;;;10.75;9.23;;;-7.00;88.90;-7.80;99089.00;;;;5036109;28;87667;-58
2022/01/11 03:02:00;;;;;;;10.70;9.07;;;-7.00;89.10;-7.80;99110.00;;;;5024698;28;86931;-59
2022/01/11 03:04:32;;;;;;;10.02;8.50;;;-7.00;88.80;-7.90;99120.00;;;;5005755;28;86971;-59
2022/01/11 03:06:58;;;;;;;10.18;8.05;;;-7.00;88.80;-7.90;99118.00;;;;5022709;28;87098;-59
2022/01/11 03:09:33;;;;;;;9.10;7.95;;;-7.10;88.50;-7.90;99119.00;;;;5022002;28;87526;-61
2022/01/11 03:11:59;;;;;;;10.32;8.23;;;-7.10;88.20;-7.90;99135.00;;;;5024329;28;87204;-58
2022/01/11 03:14:25;;;;;;;11.15;9.02;;;-7.10;88.50;-7.90;99099.00;;;;5022434;28;86906;-60
2022/01/11 03:16:52;;;;;;;11.38;8.82;;;-7.10;88.30;-8.00;99126.00;;;;5003794;28;87125;-60
2022/01/11 03:19:18;;;;;;;10.07;8.30;;;-7.10;88.20;-8.00;99115.00;;;;5021648;28;88655;-60
2022/01/11 03:21:45;;;;;;;10.45;8.55;;;-7.10;88.00;-8.00;99131.00;;;;5021182;28;88480;-59
2022/01/11 03:24:15;;;;;;;10.75;7.95;;;-7.20;87.70;-8.00;99131.00;;;;5025185;28;87014;-58
2022/01/11 03:26:42;;;;;;;10.15;8.00;;;-7.20;88.00;-8.00;99110.00;;;;5022107;28;87058;-56
2022/01/11 03:29:08;;;;;;;11.55;9.63;;;-7.20;87.50;-8.00;99113.00;;;;5020539;28;88608;-60
2022/01/11 03:31:36;;;;;;;11.95;9.52;;;-7.20;87.80;-8.10;99121.00;;;;5021103;28;87361;-57
2022/01/11 03:34:03;;;;;;;11.10;9.18;;;-7.20;87.70;-8.10;99116.00;;;;5020663;28;87086;-59
2022/01/11 03:36:29;;;;;;;11.15;9.57;;;-7.20;87.70;-8.20;99130.00;;;;5020372;28;86687;-60
2022/01/11 03:38:55;;;;;;;12.52;8.35;;;-7.30;87.50;-8.20;99123.00;;;;5020574;28;87473;-57
2022/01/11 03:41:21;;;;;;;10.77;8.27;;;-7.40;87.20;-8.30;99169.00;;;;5019873;28;88671;-59
2022/01/11 03:43:47;;;;;;;9.93;8.23;;;-7.40;87.00;-8.40;99150.00;;;;5020944;28;88262;-58
2022/01/11 03:46:19;;;;;;;;;;;-7.50;87.10;-8.40;99133.00;;;;5021462;28;87393;-57
2022/01/11 03:48:45;;;;;;;10.02;8.23;;;-7.50;87.00;-8.50;99142.00;;;;5021227;28;87381;-63
2022/01/11 03:51:11;;;;;;;10.25;8.35;;;-7.60;87.20;-8.50;99149.00;;;;5020205;28;87399;-64
2022/01/11 03:54:07;;;;;;;10.65;8.25;;;-7.60;87.20;-8.50;99155.00;;;;5004358;28;86995;-64
2022/01/11 03:56:36;;;;;;;9.23;7.40;;;-7.60;87.30;-8.50;99144.00;;;;5005349;28;87371;-64
2022/01/11 03:59:12;;;;;;;9.57;7.13;;;-7.60;87.20;-8.50;99147.00;;;;5003383;28;88653;-65
2022/01/11 04:01:39;;;;;;;9.75;8.32;;;-7.60;87.20;-8.50;99158.00;;;;5019766;28;87151;-64
2022/01/11 04:04:06;;;;;;;9.27;7.65;;;-7.60;87.50;-8.50;99168.00;;;;5020755;28;87185;-64
2022/01/11 04:06:33;;;;;;;9.73;8.13;;;-7.70;87.10;-8.60;99188.00;;;;5003130;28;87430;-63
2022/01/11 04:09:01;;;;;;;8.98;7.40;;;-7.70;87.10;-8.60;99167.00;;;;5019889;28;88634;-64
2022/01/11 04:11:28;;;;;;;10.05;7.97;;;-7.70;87.10;-8.60;99156.00;;;;5019592;28;88811;-64
2022/01/11 04:13:55;;;;;;;8.60;7.05;;;-7.70;87.10;-8.60;99174.00;;;;5018886;28;87414;-64
2022/01/11 04:16:24;;;;;;;9.57;8.18;;;-7.70;87.10;-8.60;99165.00;;;;5019415;28;87202;-64
2022/01/11 04:18:51;;;;;;;9.88;7.90;;;-7.70;87.10;-8.50;99172.00;;;;5019310;28;87639;-64
2022/01/11 04:21:17;;;;;;;11.38;7.85;;;-7.70;87.20;-8.60;99175.00;;;;5002586;28;88479;-64
2022/01/11 04:23:47;;;;;;;9.70;7.40;;;-7.70;87.20;-8.60;99179.00;;;;5018910;28;87062;-65
2022/01/11 04:26:13;;;;;;;9.50;7.90;;;-7.80;86.80;-8.70;99176.00;;;;5019771;28;87483;-64
2022/01/11 04:28:39;;;;;;;10.95;8.73;;;-7.80;86.80;-8.60;99179.00;;;;5019451;28;88087;-65
2022/01/11 04:31:07;;;;;;;10.10;7.97;;;-7.80;87.10;-8.70;99187.00;;;;5018927;28;87253;-64
2022/01/11 04:33:35;;;;;;;9.65;7.47;;;-7.80;86.90;-8.70;99194.00;;;;5017512;28;88282;-64
2022/01/11 04:36:02;;;;;;;10.93;8.35;;;-7.80;86.80;-8.80;99222.00;;;;5018598;28;87086;-65
2022/01/11 04:38:31;;;;;;;10.63;8.27;;;-7.90;86.40;-8.80;99216.00;;;;5020218;28;87646;-64
2022/01/11 04:40:58;;;;;;;11.88;8.63;;;-7.90;86.40;-8.80;99204.00;;;;5018453;28;87953;-63
2022/01/11 04:43:26;;;;;;;10.63;8.32;;;-7.90;86.60;-8.80;99211.00;;;;5016155;28;87412;-64
2022/01/11 04:45:52;;;;;;;10.15;8.38;;;-7.90;86.30;-8.90;99208.00;;;;5020314;28;87447;-64
2022/01/11 04:48:19;;;;;;;10.55;8.90;;;-8.00;86.20;-8.90;99216.00;;;;5019450;28;87747;-64
2022/01/11 04:50:47;;;;;;;11.20;8.63;;;-8.00;86.30;-8.90;99222.00;;;;5018852;28;88381;-64
2022/01/11 04:53:16;;;;;;;10.15;8.68;;;-8.10;85.90;-9.00;99221.00;;;;5019182;28;88033;-63
2022/01/11 04:55:42;;;;;;;10.25;7.88;;;-8.10;86.10;-9.00;99206.00;;;;5020381;28;87032;-64
2022/01/11 04:58:09;;;;;;;10.52;8.57;;;-8.10;86.30;-9.00;99213.00;;;;5018809;28;88672;-64
2022/01/11 05:00:36;;;;;;;10.85;7.80;;;-8.10;86.10;-9.00;99228.00;;;;5019302;28;89338;-59
2022/01/11 05:03:03;;;;;;;10.85;7.57;;;-8.10;86.10;-9.10;99223.00;;;;5019879;28;87082;-59
2022/01/11 05:05:31;;;;;;;9.07;7.63;;;-8.20;85.70;-9.10;99224.00;;;;5019572;28;87053;-58
2022/01/11 05:07:58;;;;;;;9.48;7.40;;;-8.20;85.70;-9.10;99234.00;;;;5019192;28;87754;-53
2022/01/11 05:10:24;;;;;;;9.50;7.95;;;-8.20;85.50;-9.10;99248.00;;;;5018335;28;87331;-53
2022/01/11 05:12:51;;;;;;;8.70;7.63;;;-8.20;85.90;-9.20;99221.00;;;;5017917;28;87122;-52
2022/01/11 05:15:20;;;;;;;10.32;7.82;;;-8.20;86.00;-9.10;99242.00;;;;5018880;28;86523;-56
2022/01/11 05:17:52;;;;;;;12.18;7.97;;;-8.20;86.00;-9.10;99233.00;;;;5018236;28;87631;-53
2022/01/11 05:20:19;;;;;;;11.95;8.40;;;-8.20;86.20;-9.10;99246.00;;;;5018779;28;87307;-53
2022/01/11 05:22:47;;;;;;;9.60;7.72;;;-8.20;86.20;-9.10;99243.00;;;;5017582;28;87904;-55
2022/01/11 05:25:16;;;;;;;10.43;8.60;;;-8.20;86.20;-9.10;99244.00;;;;5039509;28;87241;-56
2022/01/11 05:27:43;;;;;;;10.30;7.72;;;-8.20;86.00;-9.10;99248.00;;;;5026029;28;88254;-57
2022/01/11 05:30:10;;;;;;;11.55;8.18;;;-8.20;85.90;-9.10;99254.00;;;;5018552;28;87229;-55
2022/01/11 05:32:37;;;;;;;11.38;8.07;;;-8.20;85.80;-9.20;99250.00;;;;5018246;28;86990;-54
2022/01/11 05:35:06;;;;;;;11.75;9.05;;;-8.20;85.60;-9.20;99256.00;;;;5017707;28;87511;-54
2022/01/11 05:37:33;;;;;;;11.68;8.13;;;-8.30;85.40;-9.20;99247.00;;;;5016544;28;87732;-55
2022/01/11 05:39:59;;;;;;;11.68;8.32;;;-8.30;85.20;-9.20;99257.00;;;;5018285;28;86452;-55
2022/01/11 05:42:27;;;;;;;11.60;8.02;;;-8.30;85.20;-9.30;99254.00;;;;5007833;28;86913;-54
2022/01/11 05:44:54;;;;;;;9.57;7.57;;;-8.40;85.10;-9.30;99268.00;;;;5018693;28;87122;-53
2022/01/11 05:47:21;;;;;;;10.27;7.05;;;-8.40;85.00;-9.30;99282.00;;;;5017834;28;87995;-54
2022/01/11 05:49:47;;;;;;;8.50;7.05;;;-8.40;84.70;-9.30;99279.00;;;;5018058;28;88369;-54
2022/01/11 05:52:14;;;;;;;8.75;6.85;;;-8.40;84.50;-9.30;99265.00;;;;5018415;28;87346;-54
2022/01/11 05:54:41;;;;;;;8.43;6.65;;;-8.40;84.50;-9.30;99258.00;;;;5005091;28;87005;-63
2022/01/11 05:57:08;;;;;;;10.38;7.30;;;-8.40;84.50;-9.30;99260.00;;;;5021235;28;88055;-64
2022/01/11 05:59:34;;;;;;;9.40;6.82;;;-8.30;84.70;-9.30;99270.00;;;;5002382;28;87392;-63
2022/01/11 06:02:01;;;;;;;9.20;6.45;;;-8.30;84.20;-9.30;99283.00;;;;5005203;28;86980;-64
2022/01/11 06:04:28;;;;;;;8.60;6.55;;;-8.30;83.90;-9.30;99284.00;;;;5021494;28;86831;-63
2022/01/11 06:06:55;;;;;;;8.73;7.22;;;-8.40;83.60;-9.20;99280.00;;;;5020704;28;88560;-63
2022/01/11 06:09:26;;;;;;;8.40;6.25;;;-8.40;83.50;-9.30;99286.00;;;;5021472;28;87338;-63
2022/01/11 06:11:54;;;;;;;9.43;6.68;;;-8.40;83.70;-9.40;99285.00;;;;5024407;28;88329;-52
2022/01/11 06:14:20;;;;;;;10.20;6.90;;;-8.50;84.20;-9.40;99293.00;;;;5021118;27;87086;-56
2022/01/11 06:16:46;;;;;;;8.85;6.63;;;-8.50;84.10;-9.50;99283.00;;;;5021470;28;87704;-56
2022/01/11 06:19:13;;;;;;;8.52;6.55;;;-8.50;84.20;-9.40;99307.00;;;;5022347;28;87802;-53
2022/01/11 06:21:45;;;;;;;8.52;6.03;;;-8.50;84.40;-9.60;99294.00;;;;5005043;28;86964;-55
2022/01/11 06:24:11;;;;;;;7.68;6.07;;;-8.60;83.80;-9.60;99310.00;;;;5031598;28;87349;-56
2022/01/11 06:26:38;;;;;;;8.38;6.03;;;-8.70;83.80;-9.60;99300.00;;;;5039941;28;87643;-54
2022/01/11 06:29:06;;;;;;;8.75;5.80;;;-8.70;83.80;-9.70;99299.00;;;;5022034;28;87239;-53
2022/01/11 06:31:34;;;;;;;8.27;6.45;;;-8.80;83.30;-9.70;99308.00;;;;5021435;28;87346;-53
2022/01/11 06:34:02;;;;;;;7.65;5.90;;;-8.80;84.30;-9.70;99306.00;;;;5003248;28;87010;-55
2022/01/11 06:36:31;;;;;;;9.47;6.83;;;-8.80;83.50;-9.70;99318.00;;;;5019639;28;88562;-55
2022/01/11 06:38:57;;;;;;;10.77;6.43;;;-8.80;83.70;-9.70;99317.00;;;;5021301;28;87150;-57
2022/01/11 06:41:28;;;;;;;8.70;6.47;;;-8.80;83.60;-9.80;99334.00;;;;5021635;28;86941;-64
2022/01/11 06:43:54;;;;;;;9.15;6.47;;;-8.80;83.50;-9.80;99320.00;;;;5021241;28;87280;-64
2022/01/11 06:46:24;;;;;;;9.68;6.60;;;-8.90;83.40;-9.90;99315.00;;;;5021181;28;88501;-55
2022/01/11 06:48:52;;;;;;;9.50;6.50;;;-9.00;83.40;-10.10;99326.00;;;;5021101;28;87418;-52
2022/01/11 06:51:20;;;;;;;10.23;7.80;;;-9.10;83.80;-10.10;99321.00;;;;5004197;28;86998;-54
2022/01/11 06:53:49;;;;;;;9.95;7.07;;;-9.10;84.40;-10.10;99316.00;;;;5004389;28;86459;-54
2022/01/11 06:56:17;;;;;;;10.73;7.75;;;-9.20;84.10;-10.10;99327.00;;;;5020849;28;87455;-55
2022/01/11 06:58:45;;;;;;;10.07;7.95;;;-9.20;84.00;-10.20;99322.00;;;;5020733;28;87355;-53
2022/01/11 07:01:15;;;;;;;9.48;7.35;;;-9.30;84.20;-10.20;99331.00;;;;5020631;28;87960;-57
2022/01/11 07:03:44;;;;;;;12.35;8.05;;;-9.20;84.30;-10.20;99311.00;;;;5020556;28;86953;-52
2022/01/11 07:06:28;;;;;;;12.90;8.70;;;-9.20;84.20;-10.20;99335.00;;;;5008859;28;87617;-56
2022/01/11 07:08:57;;;;;;;9.82;7.78;;;-9.30;84.20;-10.30;99332.00;;;;5020721;28;88169;-54
2022/01/11 07:11:28;;;;;;;12.07;7.63;;;-9.30;83.70;-10.30;99345.00;;;;5024759;28;87457;-55
2022/01/11 07:13:57;;;;;;;9.82;8.20;;;-9.30;83.80;-10.30;99351.00;;;;5020613;28;87110;-56
2022/01/11 07:16:26;;;;;;;11.60;8.18;;;-9.30;83.40;-10.40;99353.00;;;;5020496;28;87555;-59
2022/01/11 07:18:53;;;;;;;12.15;8.68;;;-9.40;83.10;-10.40;99345.00;;;;5021496;28;87438;-55
2022/01/11 07:21:22;;;;;;;10.30;8.18;;;-9.50;83.10;-10.40;99349.00;;;;5020521;28;87040;-55
2022/01/11 07:23:49;;;;;;;10.35;7.93;;;-9.50;83.10;-10.50;99353.00;;;;5003538;28;87421;-56
2022/01/11 07:26:15;;;;;;;11.80;8.10;;;-9.50;83.20;-10.50;99344.00;;;;5020169;28;88606;-56
2022/01/11 07:28:42;;;;;;;10.98;7.60;;;-9.50;83.30;-10.50;99354.00;;;;5020689;28;88146;-57
2022/01/11 07:31:14;;;;;;;11.23;7.97;;;-9.50;83.40;-10.50;99357.00;;;;5020558;28;87076;-56
2022/01/11 07:33:46;;;;;;;10.27;7.38;;;-9.60;83.40;-10.50;99357.00;;;;5003787;28;87081;-54
2022/01/11 07:36:13;;;;;;;10.32;6.30;;;-9.50;83.50;-10.60;99364.00;;;;5020549;28;88506;-54
2022/01/11 07:38:41;;;;;;;6.90;5.05;;;-9.70;81.70;-10.70;99379.00;;;;5019276;28;87521;-55
2022/01/11 07:41:13;;;;;;;7.20;5.30;;;-9.80;81.00;-10.90;99391.00;;;;5020320;28;86954;-56
2022/01/11 07:43:49;;;;;;;7.53;4.93;;;-10.00;80.50;-10.90;99386.00;;;;5020772;28;86341;-53
2022/01/11 07:46:24;;;;;;;8.77;5.55;;;-10.00;80.70;-10.90;99380.00;;;;5020153;28;88576;-52
2022/01/11 07:48:52;;;;;;;7.85;5.60;;;-9.90;80.40;-10.90;99386.00;;;;5019357;28;87569;-54
2022/01/11 07:51:18;;;;;;;7.35;5.47;;;-10.00;80.20;-11.10;99388.00;;;;5019841;28;88339;-52
2022/01/11 07:53:51;;;;;;;7.97;5.65;;;-10.20;79.80;-11.40;99398.00;;;;5020565;28;87483;-51
2022/01/11 07:56:20;;;;;;;8.13;5.80;;;-10.30;80.70;-11.40;99402.00;;;;5020317;28;87543;-57
2022/01/11 07:58:47;;;;;;;7.55;5.00;;;-10.40;81.50;-11.30;99404.00;;;;5010536;28;88582;-57
2022/01/11 08:01:19;;;;;;;7.35;5.22;;;-10.30;81.40;-11.30;99392.00;;;;5041075;28;87309;-57
2022/01/11 08:03:46;;;;;;;8.60;5.70;;;-10.30;80.80;-11.30;99390.00;;;;5036006;28;87397;-52
2022/01/11 08:06:23;;;;;;;8.18;5.55;;;-10.30;80.30;-11.30;99388.00;;;;5019756;28;88682;-56
2022/01/11 08:08:57;;;;;;;6.45;5.15;;;-10.30;80.10;-11.40;99392.00;;;;5020008;28;87060;-56
2022/01/11 08:11:24;;;;;;;6.97;4.60;;;-10.40;79.50;-11.40;99413.00;;;;5019616;28;87393;-58
2022/01/11 08:13:50;;;;;;;8.18;5.43;;;-10.40;78.90;-11.50;99387.00;;;;5018681;28;89156;-55
2022/01/11 08:16:16;;;;;;;7.25;5.15;;;-10.50;78.80;-11.50;99392.00;;;;5016579;28;88777;-56
2022/01/11 08:18:43;;;;;;;8.15;5.10;;;-10.50;78.90;-11.50;99393.00;;;;5019062;28;88186;-56
2022/01/11 08:21:09;;;;;;;8.35;5.57;;;-10.50;79.30;-11.50;99392.00;;;;5002823;28;87380;-51
2022/01/11 08:23:36;;;;;;;9.95;6.30;;;-10.50;79.00;-11.60;99393.00;;;;5025252;28;87548;-54
2022/01/11 08:26:04;;;;;;;8.00;5.40;;;-10.60;78.90;-11.60;99420.00;;;;5039902;28;87347;-52
2022/01/11 08:28:30;;;;;;;8.48;5.78;;;-10.60;78.50;-11.60;99404.00;;;;5022502;28;87383;-51
2022/01/11 08:31:01;;;;;;;8.90;5.20;;;-10.60;78.30;-11.60;99397.00;;;;5002632;28;87012;-53
2022/01/11 08:33:32;;;;;;;7.93;5.22;;;-10.60;77.90;-11.60;99406.00;;;;5002727;28;87081;-56
2022/01/11 08:35:59;;;;;;;9.25;5.50;;;-10.60;78.40;-11.50;99409.00;;;;5017494;28;88280;-55
2022/01/11 08:38:29;;;;;;;7.30;5.43;;;-10.50;79.20;-11.50;99407.00;;;;5018614;28;89136;-53
2022/01/11 08:40:56;;;;;;;6.97;5.20;;;-10.50;78.40;-11.40;99398.00;;;;5018417;28;87873;-53
2022/01/11 08:43:25;;;;;;;10.18;5.60;;;-10.40;77.80;-11.40;99424.00;;;;5019098;28;87513;-55
2022/01/11 08:46:02;;;;;;;7.80;5.60;;;-10.40;77.30;-11.40;99417.00;;;;5019900;28;87535;-55
2022/01/11 08:48:31;;;;;;;7.95;6.22;;;-10.40;76.80;-11.40;99409.00;;;;5019421;28;87000;-55
2022/01/11 08:51:03;;;;;;;9.13;5.95;;;-10.40;77.40;-11.40;99406.00;;;;5003407;28;87511;-51
2022/01/11 08:53:31;;;;;;;8.32;5.35;;;-10.40;77.20;-11.50;99401.00;;;;5018890;28;87419;-54
2022/01/11 08:56:05;;;;;;;8.98;6.20;;;-10.60;77.30;-11.50;99403.00;;;;5019186;28;88781;-57
2022/01/11 08:58:36;;;;;;;8.18;5.78;;;-10.50;77.70;-11.40;99412.00;;;;5020130;28;87241;-56
2022/01/11 09:01:06;;;;;;;8.15;5.53;;;-10.40;77.80;-11.30;99397.00;;;;5019725;28;87401;-55
2022/01/11 09:03:35;;;;;;;8.07;5.40;;;-10.30;77.70;-11.20;99400.00;;;;5019199;28;87357;-54
2022/01/11 09:06:04;;;;;;;7.13;4.95;;;-10.20;76.90;-11.40;99408.00;;;;5019652;28;88492;-57
2022/01/11 09:08:35;;;;;;;7.97;5.20;;;-10.40;76.50;-11.40;99394.00;;;;5018994;28;90228;-55
2022/01/11 09:11:04;;;;;;;7.38;5.35;;;-10.50;76.70;-11.60;99415.00;;;;5019308;28;87111;-54
2022/01/11 09:13:34;;;;;;;7.13;4.78;;;-10.60;77.50;-11.50;99407.00;;;;5018714;28;87140;-55
2022/01/11 09:16:05;;;;;;;7.85;4.88;;;-10.50;78.20;-11.60;99413.00;;;;5019574;28;87505;-55
2022/01/11 09:18:32;;;;;;;7.95;5.18;;;-10.60;76.70;-11.60;99418.00;;;;5018988;28;88096;-55
2022/01/11 09:21:03;;;;;;;7.28;4.93;;;-10.60;76.90;-11.60;99416.00;;;;5013278;28;87519;-53
2022/01/11 09:23:32;;;;;;;6.97;5.05;;;-10.60;77.40;-11.60;99431.00;;;;5015256;28;86336;-52
2022/01/11 09:25:58;;;;;;;7.18;4.53;;;-10.60;76.30;-11.50;99407.00;;;;5019468;28;86907;-54
2022/01/11 09:28:25;;;;;;;6.45;4.72;;;-10.50;76.00;-11.40;99396.00;;;;5021395;28;88199;-59
2022/01/11 09:30:51;;;;;;;7.30;4.70;;;-10.40;75.80;-11.60;99410.00;;;;5021292;28;88076;-58
2022/01/11 09:33:18;;;;;;;6.93;5.03;;;-10.60;75.90;-11.60;99421.00;;;;5021450;28;87441;-59
2022/01/11 09:35:46;;;;;;;6.72;5.25;;;-10.60;76.30;-11.60;99422.00;;;;5021141;28;87612;-59
2022/01/11 09:38:18;;;;;;;8.00;5.07;;;-10.60;76.70;-11.60;99408.00;;;;5021694;28;87382;-58
2022/01/11 09:40:51;;;;;;;8.52;4.93;;;-10.50;76.80;-11.50;99411.00;;;;5021952;28;86941;-59
2022/01/11 09:43:25;;;;;;;7.15;5.10;;;-10.50;76.50;-11.50;99419.00;;;;5022622;28;87239;-58
2022/01/11 09:45:57;;;;;;;6.68;4.85;;;-10.60;76.00;-11.50;99434.00;;;;5022577;28;87641;-59
2022/01/11 09:48:29;;;;;;;8.25;4.95;;;-10.50;76.20;-11.80;99426.00;;;;5021946;28;87240;-59
2022/01/11 09:50:57;;;;;;;7.15;5.15;;;-10.70;76.60;-11.70;99435.00;;;;5022012;28;87281;-60
2022/01/11 09:53:24;;;;;;;15.40;5.43;;;-10.70;77.20;-11.80;99424.00;;;;5022196;28;87032;-57
2022/01/11 09:55:51;;;;;;;7.50;5.00;;;-10.80;77.10;-11.60;99441.00;;;;5021452;28;88986;-59
2022/01/11 09:58:22;;;;;;;5.85;4.32;;;-10.70;77.00;-11.70;99444.00;;;;5021993;28;88306;-55
2022/01/11 10:00:52;;;;;;;8.13;5.15;;;-10.70;76.90;-11.60;99427.00;;;;5023077;28;87011;-59
2022/01/11 10:04:12;;;;;;;6.40;4.97;;;-10.60;77.10;-11.60;99435.00;;;;5005918;28;87030;-58
2022/01/11 10:07:09;;;;;;;6.72;4.90;;;-10.60;77.10;-11.60;99464.00;;;;5010049;28;87357;-59
2022/01/11 10:09:48;;;;;;;6.20;4.93;;;-10.70;76.60;-11.60;99426.00;;;;5019969;28;87829;-54
2022/01/11 10:12:18;;;;;;;7.20;5.15;;;-10.60;76.60;-11.50;99435.00;;;;5020759;28;87326;-54
2022/01/11 10:14:56;;;;;;;6.88;5.03;;;-10.50;76.70;-11.50;99419.00;;;;5021016;28;86450;-55
2022/01/11 10:17:38;;;;;;;10.38;5.00;;;-10.50;76.30;-11.60;99442.00;;;;5021867;28;88685;-53
2022/01/11 10:20:12;;;;;;;6.88;5.32;;;-10.60;76.50;-11.60;99448.00;;;;5021362;28;87135;-52
2022/01/11 10:23:07;;;;;;;6.85;5.07;;;-10.70;76.50;-11.60;99442.00;;;;5021079;28;87927;-57
2022/01/11 10:25:48;;;;;;;8.07;5.15;;;-10.60;76.30;-11.50;99448.00;;;;5002218;28;87102;-55
2022/01/11 10:28:16;;;;;;;7.28;5.20;;;-10.50;76.00;-11.60;99443.00;;;;5031965;28;87588;-55
2022/01/11 10:30:48;;;;;;;6.65;3.40;;;-10.60;76.10;-11.80;99451.00;;;;5021144;28;87653;-53
2022/01/11 10:33:16;;;;;;;7.05;3.17;;;-10.70;76.30;-11.70;99459.00;;;;5020972;28;87841;-52
2022/01/11 10:35:46;;;;;;;8.80;5.32;;;-10.70;77.10;-11.60;99465.00;;;;5020266;28;87328;-56
2022/01/11 10:38:29;;;;;;;7.93;5.43;;;-10.70;76.70;-11.60;99454.00;;;;5020604;28;87822;-55
2022/01/11 10:41:01;;;;;;;7.47;5.32;;;-10.70;76.50;-11.70;99448.00;;;;5021919;28;87218;-55
2022/01/11 10:43:29;;;;;;;7.38;5.20;;;-10.70;76.80;-11.70;99466.00;;;;5021550;28;86965;-55
2022/01/11 10:45:58;;;;;;;7.38;5.53;;;-10.70;76.80;-11.80;99469.00;;;;5021691;28;87040;-57
2022/01/11 10:48:28;;;;;;;8.63;5.40;;;-10.90;77.20;-11.90;99444.00;;;;5020961;28;89426;-53
2022/01/11 10:51:02;;;;;;;7.68;5.28;;;-10.90;77.30;-11.90;99453.00;;;;5020583;28;88181;-52
2022/01/11 10:53:38;;;;;;;8.43;5.47;;;-10.90;78.00;-11.90;99459.00;;;;5021187;28;87195;-53
2022/01/11 10:56:08;;;;;;;6.60;5.00;;;-10.90;78.00;-12.00;99458.00;;;;5021240;28;86973;-54